Time;durP1;ratioP1;P1;durP2;ratioP2;P2;SDS_P1;SDS_P2;PMS_P1;PMS_P2;Temp;Humidity;BMP_temperature;BMP_pressure;BME280_temperature;BME280_humidity;BME280_pressure;Samples;Min_cycle;Max_cycle;Signal;HPM_P1;HPM_P2
2022/09/12 00:00:44;;;;;;;10.73;7.20;;;12.20;99.90;;;;;;5094615;28;20043;-51
2022/09/12 00:03:10;;;;;;;7.35;6.22;;;12.30;99.90;;;;;;5093396;27;20109;-52
2022/09/12 00:05:46;;;;;;;6.68;5.25;;;12.10;99.90;;;;;;5094302;28;20050;-53
2022/09/12 00:08:13;;;;;;;7.70;5.00;;;12.40;99.90;;;;;;5093960;27;20043;-50
2022/09/12 00:10:43;;;;;;;6.07;4.68;;;12.20;99.90;;;;;;5093854;28;20126;-52
2022/09/12 00:13:09;;;;;;;4.78;3.30;;;12.00;99.90;;;;;;5094829;27;20107;-52
2022/09/12 00:15:40;;;;;;;7.45;4.55;;;12.00;99.90;;;;;;5093999;27;20047;-50
2022/09/12 00:18:08;;;;;;;6.60;4.60;;;11.90;99.90;;;;;;5095068;27;21104;-51
2022/09/12 00:20:34;;;;;;;6.05;5.05;;;12.10;99.90;;;;;;5095439;27;20606;-51
2022/09/12 00:23:00;;;;;;;7.40;5.32;;;12.10;99.90;;;;;;5094741;27;20039;-53
2022/09/12 00:25:29;;;;;;;9.13;4.93;;;12.10;99.90;;;;;;5094095;27;20072;-53
2022/09/12 00:27:55;;;;;;;8.38;5.18;;;12.00;99.90;;;;;;5094831;27;20065;-52
2022/09/12 00:30:21;;;;;;;6.60;4.70;;;13.80;99.90;;;;;;5093480;27;20126;-51
2022/09/12 00:32:48;;;;;;;6.47;4.40;;;13.70;99.90;;;;;;5094719;27;20122;-52
2022/09/12 00:35:13;;;;;;;7.93;4.65;;;13.80;99.90;;;;;;5094122;27;20081;-49
2022/09/12 00:37:39;;;;;;;6.75;5.93;;;12.00;99.90;;;;;;5093281;27;20634;-49
2022/09/12 00:40:05;;;;;;;6.90;5.70;;;11.90;99.90;;;;;;5094199;27;22010;-50
2022/09/12 00:42:31;;;;;;;5.78;5.10;;;11.80;99.90;;;;;;5094438;28;20591;-51
2022/09/12 00:44:57;;;;;;;7.30;6.07;;;11.70;99.90;;;;;;5093929;28;20054;-51
2022/09/12 00:47:27;;;;;;;8.07;6.88;;;11.70;99.90;;;;;;5095090;27;20047;-52
2022/09/12 00:49:58;;;;;;;6.55;5.88;;;11.80;99.90;;;;;;5092811;27;20118;-49
2022/09/12 00:52:33;;;;;;;8.93;5.70;;;11.80;99.90;;;;;;5094697;27;20144;-49
2022/09/12 00:55:05;;;;;;;6.97;5.57;;;12.30;99.90;;;;;;5093928;27;20050;-53
2022/09/12 00:57:42;;;;;;;6.05;5.45;;;13.00;99.90;;;;;;5094903;28;20043;-51
2022/09/12 01:00:14;;;;;;;6.20;4.95;;;11.60;99.90;;;;;;5093312;28;20085;-53
2022/09/12 01:02:42;;;;;;;5.90;4.35;;;11.70;99.90;;;;;;5094719;27;20048;-51
2022/09/12 01:05:08;;;;;;;7.00;3.90;;;12.00;99.90;;;;;;5093686;27;20066;-50
2022/09/12 01:07:36;;;;;;;5.85;4.28;;;13.20;99.90;;;;;;5093720;28;20081;-50
2022/09/12 01:10:04;;;;;;;4.97;4.05;;;11.50;99.90;;;;;;5093728;28;20479;-49
2022/09/12 01:12:31;;;;;;;6.43;3.90;;;11.60;99.90;;;;;;5095103;27;20712;-51
2022/09/12 01:14:58;;;;;;;5.75;3.90;;;11.50;99.90;;;;;;5094012;27;20496;-51
2022/09/12 01:17:31;;;;;;;7.57;3.42;;;10.40;99.90;;;;;;5094770;27;20139;-48
2022/09/12 01:20:19;;;;;;;5.68;2.70;;;11.40;99.90;;;;;;5093503;28;20118;-51
2022/09/12 01:22:56;;;;;;;4.65;3.60;;;11.50;99.90;;;;;;5094166;27;20059;-52
2022/09/12 01:25:53;;;;;;;4.57;3.40;;;11.40;99.90;;;;;;5093147;28;20078;-51
2022/09/12 01:28:35;;;;;;;5.00;4.05;;;11.50;99.90;;;;;;5093337;27;20095;-51
2022/09/12 01:31:07;;;;;;;5.15;4.30;;;11.50;99.90;;;;;;5093762;27;20047;-51
2022/09/12 01:33:52;;;;;;;7.45;4.60;;;11.40;99.90;;;;;;5093525;27;20176;-48
2022/09/12 01:36:27;;;;;;;5.65;4.55;;;11.60;99.90;;;;;;5092783;28;20500;-50
2022/09/12 01:38:59;;;;;;;5.32;3.70;;;11.50;99.90;;;;;;5093082;27;20051;-51
2022/09/12 01:41:52;;;;;;;6.45;4.40;;;11.50;99.90;;;;;;5093358;27;20227;-50
2022/09/12 01:44:43;;;;;;;5.82;4.13;;;11.50;99.90;;;;;;5092135;28;20051;-48
2022/09/12 01:47:20;;;;;;;8.60;4.78;;;11.30;99.90;;;;;;5091748;28;20134;-49
2022/09/12 01:50:05;;;;;;;5.78;4.38;;;11.40;99.90;;;;;;5091929;28;20413;-51
2022/09/12 01:53:08;;;;;;;9.38;5.80;;;11.30;99.90;;;;;;5093022;28;20123;-52
2022/09/12 01:55:40;;;;;;;7.32;6.20;;;11.50;99.90;;;;;;5090923;28;20062;-52
2022/09/12 01:58:20;;;;;;;7.47;6.18;;;11.30;99.90;;;;;;5093192;28;20058;-53
2022/09/12 02:00:58;;;;;;;9.93;6.95;;;11.30;99.90;;;;;;5093838;28;20803;-53
2022/09/12 02:03:30;;;;;;;10.52;7.10;;;11.30;99.90;;;;;;5094009;28;20039;-52
2022/09/12 02:06:02;;;;;;;8.63;7.00;;;11.30;99.90;;;;;;5093547;28;20406;-52
2022/09/12 02:08:32;;;;;;;9.38;7.93;;;13.70;99.90;;;;;;5094059;28;20156;-53
2022/09/12 02:11:10;;;;;;;11.65;6.88;;;12.70;99.90;;;;;;5093477;28;20096;-52
2022/09/12 02:13:54;;;;;;;7.65;6.53;;;11.40;99.90;;;;;;5092975;28;20040;-52
2022/09/12 02:16:23;;;;;;;8.80;7.50;;;11.40;99.90;;;;;;5093082;28;20453;-53
2022/09/12 02:18:53;;;;;;;12.48;6.93;;;12.60;99.90;;;;;;5093566;28;20040;-52
2022/09/12 02:21:19;;;;;;;7.75;6.75;;;11.60;99.90;;;;;;5092465;28;20039;-50
2022/09/12 02:23:49;;;;;;;8.98;5.82;;;11.60;99.90;;;;;;5092382;28;20103;-52
2022/09/12 02:26:22;;;;;;;6.93;5.00;;;11.50;99.90;;;;;;5093130;28;20059;-53
2022/09/12 02:28:48;;;;;;;7.63;4.65;;;11.50;99.90;;;;;;5090706;28;20067;-53
2022/09/12 02:31:45;;;;;;;7.25;4.60;;;11.30;99.90;;;;;;5091718;28;20039;-51
2022/09/12 02:34:25;;;;;;;7.88;5.20;;;11.20;99.90;;;;;;5092336;28;20955;-52
2022/09/12 02:37:07;;;;;;;12.57;10.25;;;11.30;99.90;;;;;;5091591;28;20754;-55
2022/09/12 02:39:34;;;;;;;8.27;5.47;;;11.60;99.90;;;;;;5091613;28;20078;-51
2022/09/12 02:42:01;;;;;;;6.47;5.20;;;13.10;99.90;;;;;;5092444;28;20024;-52
2022/09/12 02:44:29;;;;;;;11.40;6.50;;;11.60;99.90;;;;;;5093364;28;20416;-51
2022/09/12 02:47:01;;;;;;;17.40;7.80;;;11.30;99.90;;;;;;5096074;28;20430;-53
2022/09/12 02:49:27;;;;;;;12.75;8.75;;;11.50;99.90;;;;;;5096322;27;20694;-51
2022/09/12 02:51:52;;;;;;;11.68;8.93;;;11.40;99.90;;;;;;5096961;27;20063;-53
2022/09/12 02:54:19;;;;;;;9.20;8.30;;;11.40;99.90;;;;;;5095636;27;20043;-52
2022/09/12 02:56:45;;;;;;;23.08;12.15;;;11.30;99.90;;;;;;5094204;28;20488;-52
2022/09/12 02:59:16;;;;;;;15.25;13.35;;;12.80;99.90;;;;;;5094587;27;20040;-52
2022/09/12 03:01:45;;;;;;;12.88;10.98;;;13.00;99.90;;;;;;5096240;27;20678;-53
2022/09/12 03:04:26;;;;;;;12.68;10.40;;;11.60;99.90;;;;;;5095843;27;20050;-52
2022/09/12 03:06:57;;;;;;;11.25;9.40;;;11.50;99.90;;;;;;5095048;28;20128;-52
2022/09/12 03:09:40;;;;;;;19.95;15.27;;;11.50;99.90;;;;;;5095192;27;20494;-52
2022/09/12 03:12:13;;;;;;;18.63;14.57;;;11.60;99.90;;;;;;5096379;27;20128;-53
2022/09/12 03:14:48;;;;;;;20.30;15.77;;;11.60;99.90;;;;;;5097233;27;20043;-51
2022/09/12 03:17:41;;;;;;;23.55;18.17;;;13.20;99.90;;;;;;5095734;27;20049;-52
2022/09/12 03:20:09;;;;;;;21.42;15.98;;;13.80;99.90;;;;;;5096021;27;20079;-54
2022/09/12 03:22:53;;;;;;;21.25;17.70;;;11.80;99.90;;;;;;5097325;27;20047;-53
2022/09/12 03:25:29;;;;;;;26.30;22.17;;;11.90;99.90;;;;;;5096250;27;20098;-52
2022/09/12 03:28:06;;;;;;;29.75;23.55;;;11.90;99.90;;;;;;5095638;27;20036;-54
2022/09/12 03:30:44;;;;;;;30.02;23.83;;;12.00;99.90;;;;;;5095602;28;20583;-52
2022/09/12 03:33:16;;;;;;;27.33;22.45;;;12.00;99.90;;;;;;5095359;27;20043;-52
2022/09/12 03:35:42;;;;;;;25.35;22.20;;;12.00;99.90;;;;;;5094346;27;20063;-53
2022/09/12 03:38:08;;;;;;;27.15;23.15;;;12.00;99.90;;;;;;5096221;27;20043;-53
2022/09/12 03:40:35;;;;;;;29.98;23.67;;;12.60;99.90;;;;;;5095059;27;20046;-53
2022/09/12 03:43:01;;;;;;;28.80;23.30;;;12.00;99.90;;;;;;5095735;27;20059;-53
2022/09/12 03:45:27;;;;;;;34.90;26.48;;;12.10;99.90;;;;;;5094794;28;20050;-53
2022/09/12 03:47:53;;;;;;;33.05;25.90;;;12.10;99.90;;;;;;5095718;27;20051;-54
2022/09/12 03:50:19;;;;;;;31.23;26.33;;;12.10;99.90;;;;;;5095118;28;20096;-53
2022/09/12 03:52:45;;;;;;;31.38;23.35;;;12.50;99.90;;;;;;5096652;27;20048;-53
2022/09/12 03:55:11;;;;;;;31.80;24.65;;;12.00;99.90;;;;;;5093558;27;20067;-53
2022/09/12 03:57:37;;;;;;;29.85;25.00;;;13.60;99.90;;;;;;5095614;27;20492;-53
2022/09/12 04:00:05;;;;;;;28.77;23.48;;;12.10;99.90;;;;;;5094077;27;20028;-54
2022/09/12 04:02:31;;;;;;;28.85;22.50;;;12.10;99.90;;;;;;5094928;28;20035;-49
2022/09/12 04:04:56;;;;;;;36.58;26.25;;;12.20;99.90;;;;;;5096266;27;20044;-51
2022/09/12 04:07:22;;;;;;;33.88;26.73;;;12.10;99.90;;;;;;5095464;27;20648;-53
2022/09/12 04:09:49;;;;;;;29.05;24.10;;;13.40;99.90;;;;;;5094888;27;20923;-51
2022/09/12 04:12:15;;;;;;;34.85;26.30;;;12.50;99.90;;;;;;5094719;27;20397;-53
2022/09/12 04:14:40;;;;;;;29.52;23.77;;;12.20;99.90;;;;;;5095890;27;20054;-53
2022/09/12 04:17:06;;;;;;;28.40;23.58;;;12.10;99.90;;;;;;5094479;27;20044;-52
2022/09/12 04:19:32;;;;;;;37.80;27.05;;;12.20;99.90;;;;;;5094710;27;20131;-51
2022/09/12 04:21:58;;;;;;;35.55;27.80;;;12.00;99.90;;;;;;5093627;27;20191;-50
2022/09/12 04:24:24;;;;;;;40.13;28.63;;;12.10;99.90;;;;;;5095939;27;20204;-53
2022/09/12 04:26:50;;;;;;;34.92;26.52;;;12.20;99.90;;;;;;5094036;27;20043;-53
2022/09/12 04:29:16;;;;;;;33.63;26.75;;;12.30;99.90;;;;;;5093990;28;20036;-52
2022/09/12 04:31:42;;;;;;;43.13;29.08;;;12.30;99.90;;;;;;5094428;27;20031;-53
2022/09/12 04:34:08;;;;;;;38.67;28.75;;;12.30;99.90;;;;;;5094296;27;20070;-52
2022/09/12 04:36:33;;;;;;;38.85;28.70;;;12.70;99.90;;;;;;5093602;28;20138;-51
2022/09/12 04:39:00;;;;;;;43.28;30.13;;;12.10;99.90;;;;;;5094314;27;20046;-52
2022/09/12 04:41:35;;;;;;;45.15;31.83;;;12.50;99.90;;;;;;5094634;27;21611;-53
2022/09/12 04:44:20;;;;;;;40.00;29.83;;;11.00;99.90;;;;;;5094319;27;20047;-51
2022/09/12 04:46:46;;;;;;;38.25;29.92;;;12.50;99.90;;;;;;5094563;28;20038;-52
2022/09/12 04:49:15;;;;;;;42.08;29.95;;;12.50;99.90;;;;;;5094622;27;20453;-53
2022/09/12 04:51:42;;;;;;;42.00;28.88;;;12.70;99.90;;;;;;5094141;27;20055;-54
2022/09/12 04:54:16;;;;;;;38.97;28.73;;;12.60;99.90;;;;;;5094885;27;20051;-53
2022/09/12 04:56:44;;;;;;;39.17;30.10;;;12.60;99.90;;;;;;5093717;27;20058;-53
2022/09/12 04:59:11;;;;;;;39.08;29.73;;;12.40;99.90;;;;;;5093244;27;20094;-49
2022/09/12 05:01:37;;;;;;;39.03;26.95;;;12.60;99.90;;;;;;5094420;27;20067;-50
2022/09/12 05:04:03;;;;;;;43.10;29.85;;;12.60;99.90;;;;;;5094447;27;20043;-50
2022/09/12 05:06:33;;;;;;;50.60;31.70;;;12.70;99.90;;;;;;5093807;28;20428;-51
2022/09/12 05:09:00;;;;;;;45.45;30.92;;;13.20;99.90;;;;;;5092260;28;20039;-49
2022/09/12 05:11:32;;;;;;;39.67;28.95;;;12.60;99.90;;;;;;5092295;27;20036;-53
2022/09/12 05:13:58;;;;;;;39.08;28.80;;;12.90;99.90;;;;;;5093390;28;20070;-52
2022/09/12 05:16:25;;;;;;;42.20;29.45;;;14.90;99.90;;;;;;5094071;28;20532;-53
2022/09/12 05:18:51;;;;;;;44.40;31.48;;;12.70;99.90;;;;;;5093310;27;20082;-52
2022/09/12 05:21:19;;;;;;;42.05;29.88;;;12.80;99.90;;;;;;5092742;27;20039;-49
2022/09/12 05:23:46;;;;;;;39.60;28.65;;;13.30;99.90;;;;;;5093472;27;20043;-52
2022/09/12 05:26:15;;;;;;;39.38;28.63;;;13.00;99.90;;;;;;5092820;28;20047;-51
2022/09/12 05:28:42;;;;;;;45.00;29.55;;;13.00;99.90;;;;;;5091588;27;20035;-51
2022/09/12 05:31:12;;;;;;;42.95;30.98;;;12.90;99.90;;;;;;5092403;27;20562;-50
2022/09/12 05:33:42;;;;;;;42.97;30.30;;;12.90;99.90;;;;;;5091203;28;20210;-51
2022/09/12 05:36:12;;;;;;;42.80;30.95;;;13.10;99.90;;;;;;5092175;27;20341;-52
2022/09/12 05:38:38;;;;;;;42.65;30.92;;;13.20;99.90;;;;;;5091958;28;20043;-53
2022/09/12 05:41:11;;;;;;;43.35;30.15;;;13.10;99.90;;;;;;5093279;28;20646;-53
2022/09/12 05:43:38;;;;;;;40.55;29.35;;;13.20;99.90;;;;;;5092588;27;20047;-52
2022/09/12 05:46:09;;;;;;;45.08;30.75;;;12.70;99.90;;;;;;5093008;28;20092;-53
2022/09/12 05:48:35;;;;;;;48.42;32.00;;;13.10;99.90;;;;;;5092412;28;20042;-55
2022/09/12 05:51:10;;;;;;;46.45;31.38;;;13.20;99.90;;;;;;5092891;28;20112;-52
2022/09/12 05:53:37;;;;;;;46.00;30.50;;;13.20;99.90;;;;;;5093988;27;20535;-51
2022/09/12 05:56:09;;;;;;;43.63;31.13;;;13.20;99.90;;;;;;5092542;27;20407;-53
2022/09/12 05:58:36;;;;;;;41.88;30.23;;;13.40;99.90;;;;;;5092824;28;20050;-53
2022/09/12 06:01:07;;;;;;;43.13;32.08;;;13.40;99.90;;;;;;5092740;28;20039;-54
2022/09/12 06:03:40;;;;;;;50.27;33.10;;;13.30;99.90;;;;;;5093560;28;20039;-52
2022/09/12 06:06:07;;;;;;;51.67;33.20;;;13.30;99.90;;;;;;5092760;28;20288;-54
2022/09/12 06:08:35;;;;;;;48.80;31.10;;;13.30;99.90;;;;;;5093068;28;20039;-53
2022/09/12 06:11:05;;;;;;;54.70;36.95;;;13.50;99.90;;;;;;5093756;28;20055;-53
2022/09/12 06:13:39;;;;;;;49.33;34.30;;;13.40;99.90;;;;;;5093409;28;20468;-53
2022/09/12 06:16:07;;;;;;;48.38;32.72;;;13.80;99.90;;;;;;5092713;28;20377;-52
2022/09/12 06:18:37;;;;;;;47.53;31.58;;;13.60;99.90;;;;;;5093363;28;20036;-52
2022/09/12 06:21:07;;;;;;;45.85;32.55;;;15.10;99.90;;;;;;5096999;27;20576;-53
2022/09/12 06:23:33;;;;;;;40.28;31.38;;;13.80;99.90;;;;;;5097631;27;20046;-55
2022/09/12 06:26:00;;;;;;;45.13;31.60;;;13.70;99.90;;;;;;5096193;27;20036;-53
2022/09/12 06:28:26;;;;;;;46.45;32.60;;;13.70;99.90;;;;;;5095932;28;20071;-53
2022/09/12 06:30:52;;;;;;;48.60;33.15;;;13.70;99.90;;;;;;5096144;27;20336;-53
2022/09/12 06:33:18;;;;;;;47.10;31.08;;;13.90;99.90;;;;;;5097020;28;20083;-53
2022/09/12 06:35:44;;;;;;;42.08;30.83;;;13.90;99.90;;;;;;5096403;28;20071;-53
2022/09/12 06:38:10;;;;;;;45.92;32.17;;;13.90;99.90;;;;;;5095536;27;20043;-52
2022/09/12 06:40:45;;;;;;;43.17;32.45;;;13.90;99.90;;;;;;5095994;27;20043;-52
2022/09/12 06:43:13;;;;;;;44.72;32.42;;;13.80;99.90;;;;;;5095675;27;20572;-53
2022/09/12 06:45:47;;;;;;;41.55;28.98;;;13.90;99.90;;;;;;5094766;27;20035;-52
2022/09/12 06:48:12;;;;;;;42.88;30.83;;;13.80;99.90;;;;;;5095290;28;20511;-53
2022/09/12 06:50:38;;;;;;;48.85;34.03;;;13.80;99.90;;;;;;5095608;28;20050;-53
2022/09/12 06:53:03;;;;;;;47.88;32.67;;;14.10;99.90;;;;;;5096218;27;20135;-52
2022/09/12 06:55:29;;;;;;;49.90;34.45;;;13.90;99.90;;;;;;5096436;28;20039;-53
2022/09/12 06:57:55;;;;;;;56.13;34.72;;;14.20;99.90;;;;;;5095613;27;20145;-52
2022/09/12 07:00:20;;;;;;;53.53;34.88;;;14.20;99.90;;;;;;5096157;27;20047;-56
2022/09/12 07:02:47;;;;;;;56.08;36.22;;;14.10;99.90;;;;;;5095823;27;20027;-53
2022/09/12 07:05:14;;;;;;;56.25;36.92;;;14.10;99.90;;;;;;5096537;28;20050;-53
2022/09/12 07:07:39;;;;;;;58.53;38.58;;;14.30;99.90;;;;;;5095925;28;20040;-53
2022/09/12 07:10:05;;;;;;;58.35;39.20;;;15.60;99.90;;;;;;5096315;27;20413;-52
2022/09/12 07:12:31;;;;;;;61.13;39.13;;;14.30;99.90;;;;;;5096081;27;20071;-53
2022/09/12 07:14:57;;;;;;;61.28;38.88;;;14.40;99.90;;;;;;5096184;27;20082;-53
2022/09/12 07:17:22;;;;;;;66.72;39.30;;;14.60;99.90;;;;;;5096946;27;20050;-54
2022/09/12 07:19:48;;;;;;;60.65;38.45;;;14.60;99.90;;;;;;5096237;27;20043;-48
2022/09/12 07:22:14;;;;;;;57.28;38.17;;;14.80;99.90;;;;;;5096394;28;20123;-49
2022/09/12 07:24:40;;;;;;;61.20;38.67;;;14.90;99.90;;;;;;5096473;27;20687;-52
2022/09/12 07:27:05;;;;;;;58.83;38.35;;;14.90;99.90;;;;;;5094855;27;20507;-53
2022/09/12 07:29:31;;;;;;;55.53;35.95;;;14.90;99.90;;;;;;5096816;27;20039;-52
2022/09/12 07:31:58;;;;;;;51.80;37.13;;;15.10;99.90;;;;;;5093511;27;20050;-51
2022/09/12 07:34:24;;;;;;;62.40;39.35;;;15.10;99.90;;;;;;5095138;27;20043;-51
2022/09/12 07:36:50;;;;;;;58.60;38.45;;;15.10;99.90;;;;;;5095507;27;20055;-50
2022/09/12 07:39:15;;;;;;;54.42;37.15;;;15.20;99.90;;;;;;5094955;27;20044;-51
2022/09/12 07:41:41;;;;;;;61.10;39.47;;;15.00;99.90;;;;;;5094648;27;20103;-52
2022/09/12 07:44:07;;;;;;;60.88;39.47;;;15.20;99.90;;;;;;5095388;27;20572;-52
2022/09/12 07:46:33;;;;;;;62.78;40.00;;;15.20;99.90;;;;;;5095430;27;20061;-51
2022/09/12 07:49:00;;;;;;;63.55;40.22;;;15.10;99.90;;;;;;5094771;27;20043;-52
2022/09/12 07:51:27;;;;;;;60.45;39.78;;;15.30;99.90;;;;;;5094886;28;20047;-52
2022/09/12 07:53:55;;;;;;;55.70;38.72;;;15.40;99.90;;;;;;5095317;27;20083;-51
2022/09/12 07:56:21;;;;;;;62.45;40.58;;;15.20;99.90;;;;;;5095699;27;20052;-53
2022/09/12 07:58:47;;;;;;;62.72;39.22;;;15.30;99.90;;;;;;5094752;27;20514;-52
2022/09/12 08:01:15;;;;;;;61.60;40.05;;;15.60;99.90;;;;;;5093649;27;20039;-50
2022/09/12 08:03:43;;;;;;;60.42;39.38;;;15.70;99.90;;;;;;5093994;27;20039;-51
2022/09/12 08:06:15;;;;;;;62.95;38.85;;;15.60;99.90;;;;;;5094586;27;20122;-55
2022/09/12 08:08:41;;;;;;;63.50;38.50;;;15.50;99.90;;;;;;5093268;28;20063;-56
2022/09/12 08:11:10;;;;;;;64.85;40.67;;;15.60;99.90;;;;;;5094082;27;20069;-55
2022/09/12 08:13:38;;;;;;;60.80;39.55;;;15.80;99.90;;;;;;5095219;27;20050;-55
2022/09/12 08:16:07;;;;;;;61.90;40.03;;;15.70;99.90;;;;;;5094723;27;20708;-53
2022/09/12 08:18:35;;;;;;;63.13;42.90;;;15.90;99.90;;;;;;5094700;27;20330;-55
2022/09/12 08:21:24;;;;;;;59.67;40.05;;;16.10;99.90;;;;;;5094332;28;20048;-56
2022/09/12 08:24:00;;;;;;;58.70;40.90;;;16.30;99.90;;;;;;5095297;27;20063;-54
2022/09/12 08:26:26;;;;;;;61.45;41.08;;;16.20;99.90;;;;;;5095970;27;20351;-55
2022/09/12 08:28:52;;;;;;;62.28;41.35;;;16.20;99.90;;;;;;5094643;27;20052;-55
2022/09/12 08:31:21;;;;;;;63.85;40.35;;;16.40;99.90;;;;;;5095668;27;20287;-54
2022/09/12 08:33:46;;;;;;;58.53;39.75;;;16.80;99.90;;;;;;5095547;27;20047;-55
2022/09/12 08:36:17;;;;;;;60.47;39.05;;;16.60;99.90;;;;;;5095355;27;20116;-55
2022/09/12 08:38:45;;;;;;;62.30;39.65;;;16.70;99.90;;;;;;5095539;28;20576;-56
2022/09/12 08:41:17;;;;;;;62.22;39.33;;;16.80;99.90;;;;;;5093791;27;20092;-55
2022/09/12 08:43:52;;;;;;;57.95;39.63;;;17.10;99.90;;;;;;5095019;27;20053;-55
2022/09/12 08:46:26;;;;;;;53.55;37.20;;;17.10;99.90;;;;;;5094542;27;20279;-55
2022/09/12 08:48:52;;;;;;;60.03;40.83;;;16.70;99.90;;;;;;5094306;27;20055;-55
2022/09/12 08:51:19;;;;;;;56.35;40.40;;;16.90;99.90;;;;;;5094842;27;20127;-54
2022/09/12 08:53:48;;;;;;;59.38;40.60;;;17.30;99.90;;;;;;5094263;28;20044;-56
2022/09/12 08:56:15;;;;;;;55.58;38.92;;;17.30;99.90;;;;;;5095097;27;20399;-57
2022/09/12 08:58:43;;;;;;;60.78;40.47;;;17.50;99.90;;;;;;5093936;28;20840;-53
2022/09/12 09:01:32;;;;;;;57.90;39.00;;;17.60;99.90;;;;;;5093591;27;20039;-55
2022/09/12 09:04:16;;;;;;;59.47;38.80;;;17.70;99.90;;;;;;5094249;27;20687;-55
2022/09/12 09:06:48;;;;;;;52.70;39.00;;;17.90;99.90;;;;;;5094158;28;20075;-55
2022/09/12 09:09:39;;;;;;;57.47;39.10;;;18.40;99.90;;;;;;5092147;27;20126;-56
2022/09/12 09:12:32;;;;;;;57.00;39.90;;;17.90;99.90;;;;;;5093498;27;20049;-55
2022/09/12 09:15:00;;;;;;;56.72;41.00;;;18.30;99.90;;;;;;5094247;28;20318;-55
2022/09/12 09:17:41;;;;;;;55.80;40.85;;;18.10;99.90;;;;;;5093266;28;20031;-55
2022/09/12 09:20:21;;;;;;;63.53;41.08;;;18.10;99.90;;;;;;5093568;28;20050;-55
2022/09/12 09:23:30;;;;;;;54.22;40.00;;;18.40;99.90;;;;;;5093910;28;20114;-55
2022/09/12 09:26:01;;;;;;;58.42;40.67;;;18.40;99.90;;;;;;5093862;27;20058;-56
2022/09/12 09:28:34;;;;;;;57.70;42.00;;;18.60;99.90;;;;;;5093184;27;20097;-55
2022/09/12 09:31:00;;;;;;;55.47;40.97;;;18.70;99.90;;;;;;5093246;27;20035;-55
2022/09/12 09:33:33;;;;;;;58.80;41.30;;;18.70;99.90;;;;;;5092419;28;20050;-53
2022/09/12 09:36:12;;;;;;;55.53;40.47;;;18.80;99.90;;;;;;5093240;28;20076;-54
2022/09/12 09:38:59;;;;;;;55.55;40.80;;;18.90;99.90;;;;;;5094433;28;20492;-55
2022/09/12 09:42:13;;;;;;;58.10;42.17;;;18.80;99.90;;;;;;5095306;27;20051;-56
2022/09/12 09:44:39;;;;;;;58.30;41.20;;;19.10;99.90;;;;;;5089399;27;20412;-56
2022/09/12 09:47:05;;;;;;;56.55;38.92;;;19.00;99.90;;;;;;5093990;28;20048;-56
2022/09/12 09:49:33;;;;;;;58.63;39.38;;;19.00;99.90;;;;;;5093060;28;20044;-56
2022/09/12 09:52:02;;;;;;;53.92;38.03;;;19.10;99.90;;;;;;5093366;28;20071;-55
2022/09/12 09:54:36;;;;;;;54.95;39.85;;;18.00;99.90;;;;;;5092802;28;20093;-56
2022/09/12 09:57:03;;;;;;;53.70;36.50;;;19.60;99.90;;;;;;5094793;28;20468;-56
2022/09/12 09:59:33;;;;;;;53.35;37.55;;;19.90;99.90;;;;;;5094294;27;20935;-55
2022/09/12 10:02:22;;;;;;;48.15;33.67;;;20.00;99.90;;;;;;5094312;28;20057;-55
2022/09/12 10:04:57;;;;;;;48.03;33.88;;;20.30;99.90;;;;;;5087864;28;20044;-56
2022/09/12 10:07:25;;;;;;;47.53;33.60;;;20.70;99.90;;;;;;5094068;28;20077;-55
2022/09/12 10:10:17;;;;;;;43.88;32.45;;;20.70;99.90;;;;;;5076253;28;20403;-55
2022/09/12 10:12:43;;;;;;;46.75;31.00;;;20.80;99.90;;;;;;5093952;28;25114;-55
2022/09/12 10:15:20;;;;;;;44.83;32.40;;;20.90;99.90;;;;;;5093847;28;20127;-55
2022/09/12 10:17:48;;;;;;;50.17;30.63;;;21.30;99.90;;;;;;5092974;28;20050;-55
2022/09/12 10:20:43;;;;;;;38.90;28.05;;;21.60;99.90;;;;;;5093609;28;20050;-55
2022/09/12 10:23:36;;;;;;;40.50;28.75;;;21.50;99.90;;;;;;5093222;28;20039;-55
2022/09/12 10:26:08;;;;;;;41.75;29.98;;;21.70;99.90;;;;;;5094260;28;20047;-56
2022/09/12 10:28:48;;;;;;;;;;;21.50;99.90;;;;;;5093035;28;20111;-56
2022/09/12 10:31:23;;;;;;;42.33;27.95;;;21.60;99.90;;;;;;5125672;27;19931;-54
2022/09/12 10:33:52;;;;;;;35.38;23.65;;;21.80;99.90;;;;;;5093349;28;20139;-56
2022/09/12 10:36:25;;;;;;;24.05;17.73;;;22.10;99.90;;;;;;5092276;28;20047;-54
2022/09/12 10:38:54;;;;;;;24.27;17.33;;;22.30;99.90;;;;;;5093689;28;20502;-56
2022/09/12 10:41:20;;;;;;;27.30;18.48;;;22.40;99.90;;;;;;5093209;28;20042;-55
2022/09/12 10:43:47;;;;;;;26.08;16.90;;;22.30;99.90;;;;;;5092069;28;20653;-53
2022/09/12 10:46:20;;;;;;;27.42;19.30;;;22.60;99.90;;;;;;5091927;28;20040;-55
2022/09/12 10:48:48;;;;;;;24.95;17.10;;;22.70;99.90;;;;;;5091819;28;20032;-54
2022/09/12 10:51:34;;;;;;;22.83;17.20;;;22.70;99.90;;;;;;5091500;28;20047;-53
2022/09/12 10:54:06;;;;;;;26.38;16.55;;;22.50;99.90;;;;;;5092233;28;20062;-54
2022/09/12 10:56:57;;;;;;;22.65;15.88;;;22.50;99.90;;;;;;5093239;28;20071;-55
2022/09/12 10:59:51;;;;;;;21.17;15.20;;;22.70;99.90;;;;;;5091989;28;20468;-56
2022/09/12 11:02:59;;;;;;;22.60;15.32;;;22.80;99.90;;;;;;5091841;28;20047;-55
2022/09/12 11:05:59;;;;;;;23.45;14.13;;;22.80;99.90;;;;;;5069426;27;20058;-54
2022/09/12 11:08:49;;;;;;;20.50;12.35;;;22.80;99.90;;;;;;5096057;28;20146;-55
2022/09/12 11:11:27;;;;;;;16.08;12.55;;;22.90;99.90;;;;;;5095910;27;20371;-55
2022/09/12 11:14:27;;;;;;;18.65;11.60;;;22.90;99.90;;;;;;5096383;27;20066;-55
2022/09/12 11:17:22;;;;;;;16.63;12.02;;;23.00;99.90;;;;;;5096637;27;20035;-56
2022/09/12 11:20:20;;;;;;;16.30;12.98;;;22.90;99.90;;;;;;5095918;27;21123;-56
2022/09/12 11:23:06;;;;;;;15.00;10.75;;;23.30;99.90;;;;;;5096831;28;20109;-55
2022/09/12 11:25:46;;;;;;;16.25;11.38;;;23.10;99.90;;;;;;5096629;28;20043;-55
2022/09/12 11:28:15;;;;;;;16.13;10.90;;;23.30;99.90;;;;;;5096186;27;20084;-55
2022/09/12 11:31:06;;;;;;;16.58;12.18;;;23.30;99.90;;;;;;5095279;28;20376;-55
2022/09/12 11:33:46;;;;;;;17.60;12.90;;;23.50;99.90;;;;;;5095203;27;20797;-55
2022/09/12 11:36:26;;;;;;;18.52;13.13;;;23.00;99.90;;;;;;5095645;27;20043;-55
2022/09/12 11:39:02;;;;;;;20.40;13.30;;;23.00;99.90;;;;;;5094906;27;20883;-55
2022/09/12 11:41:38;;;;;;;17.45;12.13;;;22.80;99.90;;;;;;5094953;27;20035;-55
2022/09/12 11:44:12;;;;;;;15.88;10.95;;;22.80;99.90;;;;;;5095699;27;20112;-55
2022/09/12 11:46:42;;;;;;;19.17;11.35;;;22.90;99.90;;;;;;5095506;28;20066;-56
2022/09/12 11:49:14;;;;;;;19.08;12.27;;;23.00;99.90;;;;;;5095587;27;20032;-56
2022/09/12 11:51:49;;;;;;;18.55;11.80;;;22.90;99.90;;;;;;5093694;27;20108;-56
2022/09/12 11:54:33;;;;;;;18.50;12.65;;;22.90;99.90;;;;;;5095140;27;21277;-56
2022/09/12 11:58:00;;;;;;;16.40;11.60;;;22.80;99.90;;;;;;5097028;27;20522;-56
2022/09/12 12:00:35;;;;;;;21.52;11.88;;;22.70;99.90;;;;;;5047567;28;20063;-56
2022/09/12 12:03:19;;;;;;;17.17;11.50;;;22.40;99.90;;;;;;5095222;27;20043;-55
2022/09/12 12:06:11;;;;;;;16.15;11.13;;;22.50;99.90;;;;;;5096243;27;20135;-56
2022/09/12 12:08:41;;;;;;;18.83;11.07;;;22.50;99.90;;;;;;5094704;27;20115;-55
2022/09/12 12:11:09;;;;;;;17.42;11.32;;;22.80;99.90;;;;;;5094903;27;20560;-55
2022/09/12 12:13:52;;;;;;;15.43;10.18;;;22.90;99.90;;;;;;5094914;28;20047;-55
2022/09/12 12:16:30;;;;;;;13.55;9.02;;;23.20;99.90;;;;;;5094547;27;20510;-55
2022/09/12 12:19:14;;;;;;;12.75;8.52;;;22.90;99.90;;;;;;5094484;27;20666;-54
2022/09/12 12:21:47;;;;;;;15.00;9.25;;;21.50;99.90;;;;;;5095566;27;20047;-54
2022/09/12 12:24:23;;;;;;;13.48;9.10;;;23.10;99.90;;;;;;5095429;27;20808;-55
2022/09/12 12:27:03;;;;;;;14.50;8.82;;;23.10;99.90;;;;;;5096601;27;20138;-55
2022/09/12 12:29:35;;;;;;;12.32;8.98;;;22.90;99.90;;;;;;5094961;27;20132;-55
2022/09/12 12:32:01;;;;;;;12.70;7.97;;;23.20;99.90;;;;;;5094484;27;20047;-55
2022/09/12 12:34:38;;;;;;;10.65;7.35;;;23.30;99.90;;;;;;5094312;28;20051;-55
2022/09/12 12:37:20;;;;;;;11.15;7.03;;;24.00;99.90;;;;;;5094060;27;20711;-55
2022/09/12 12:39:46;;;;;;;9.73;6.78;;;23.70;99.90;;;;;;5095368;27;20040;-55
2022/09/12 12:42:34;;;;;;;11.18;6.72;;;23.50;99.90;;;;;;5094592;27;20076;-55
2022/09/12 12:45:02;;;;;;;11.77;6.93;;;23.40;99.90;;;;;;5094164;27;20400;-54
2022/09/12 12:47:38;;;;;;;13.57;7.30;;;23.30;99.90;;;;;;5093154;28;20839;-55
2022/09/12 12:50:13;;;;;;;11.32;7.97;;;23.60;99.90;;;;;;5093713;27;20880;-52
2022/09/12 12:53:01;;;;;;;13.88;9.60;;;23.40;99.90;;;;;;5092834;27;20607;-54
2022/09/12 12:55:34;;;;;;;14.25;9.68;;;23.30;99.90;;;;;;5093907;27;20396;-55
2022/09/12 12:58:05;;;;;;;13.50;8.13;;;23.20;99.90;;;;;;5093444;27;20047;-55
2022/09/12 13:00:32;;;;;;;13.63;9.00;;;23.00;99.90;;;;;;5094154;27;20039;-54